CPH weather

Copenhagen Kastrup Airport
Copenhagen, Capital Region, Denmark

Public forecast

Using degrees Celsius for public forecast. Weather courtesy of forecast.io.

METAR (pilot weather report)

Retrieved 2017/07/23 04:20 UTC (0 seconds ago):

EKCH 230420Z 09014KT 9999 SCT038 BKN076 16/12 Q1014 NOSIG

TAF (pilot weather forecast)

Forecast is more than 12 hours old.

Retrieved 2017/07/22 00:18 UTC (1 day ago):

TAF EKCH 222308Z 2300/2324 10012KT 9999 SCT020 TEMPO 2300/2314 -SHRA SCT020CB TEMPO 2314/2322 3000 SHRA TSRA BKN007 BKN020CB BECMG 2322/2324 24008KT TEMPO 2322/2324 BKN010